Time;durP1;ratioP1;P1;durP2;ratioP2;P2;SDS_P1;SDS_P2;PMS_P1;PMS_P2;Temp;Humidity;BMP_temperature;BMP_pressure;BME280_temperature;BME280_humidity;BME280_pressure;Samples;Min_cycle;Max_cycle;Signal;HPM_P1;HPM_P2
2022/01/26 00:00:29;;;;;;;49.57;26.33;;;;;;;;;;2048539;28;20186;-58
2022/01/26 00:06:28;;;;;;;53.90;27.17;;;;;;;;;;2061470;28;20165;-56
2022/01/26 00:07:28;;;;;;;52.20;27.93;;;;;;;;;;2055738;28;20248;-61
2022/01/26 00:08:28;;;;;;;51.47;26.40;;;;;;;;;;2061959;28;20701;-58
2022/01/26 00:09:28;;;;;;;57.37;27.30;;;;;;;;;;2058015;28;20185;-62
2022/01/26 00:10:29;;;;;;;56.10;28.67;;;;;;;;;;2056093;28;20273;-61
2022/01/26 00:11:31;;;;;;;52.77;30.23;;;;;;;;;;2055874;28;20177;-58
2022/01/26 00:12:31;;;;;;;54.17;27.90;;;;;;;;;;2056713;28;20678;-60
2022/01/26 00:13:31;;;;;;;58.70;29.70;;;;;;;;;;2062419;28;20176;-54
2022/01/26 00:14:32;;;;;;;49.00;26.50;;;;;;;;;;2057904;28;20185;-57
2022/01/26 00:15:32;;;;;;;48.33;26.37;;;;;;;;;;2053523;28;20200;-54
2022/01/26 00:16:40;;;;;;;55.43;27.60;;;;;;;;;;2054150;28;20170;-55
2022/01/26 00:17:41;;;;;;;54.20;27.83;;;;;;;;;;2063045;28;20554;-56
2022/01/26 00:18:41;;;;;;;52.63;27.30;;;;;;;;;;2057895;28;20174;-62
2022/01/26 00:19:57;;;;;;;50.67;27.80;;;;;;;;;;2056177;28;20570;-61
2022/01/26 00:21:09;;;;;;;52.13;27.87;;;;;;;;;;2053442;28;20198;-60
2022/01/26 00:22:09;;;;;;;55.70;27.53;;;;;;;;;;2052457;28;20177;-57
2022/01/26 00:27:49;;;;;;;49.43;27.50;;;;;;;;;;2056407;28;20233;-61
2022/01/26 00:39:26;;;;;;;61.57;28.10;;;;;;;;;;2056444;28;20202;-59
2022/01/26 00:40:53;;;;;;;56.43;29.43;;;;;;;;;;2058506;28;20159;-58
2022/01/26 00:41:55;;;;;;;56.90;28.53;;;;;;;;;;2057841;28;20197;-53
2022/01/26 00:43:00;;;;;;;54.57;28.77;;;;;;;;;;2057813;28;20316;-55
2022/01/26 00:44:01;;;;;;;61.63;29.00;;;;;;;;;;2058539;28;20186;-57
2022/01/26 00:45:01;;;;;;;58.40;28.80;;;;;;;;;;2058402;28;20682;-58
2022/01/26 00:46:04;;;;;;;55.37;29.40;;;;;;;;;;2057941;28;20241;-55
2022/01/26 00:47:05;;;;;;;58.67;28.40;;;;;;;;;;2058145;28;20183;-52
2022/01/26 00:48:08;;;;;;;58.17;29.83;;;;;;;;;;2058178;28;20177;-55
2022/01/26 00:49:08;;;;;;;55.33;28.37;;;;;;;;;;2058046;28;20182;-56
2022/01/26 00:50:11;;;;;;;59.70;28.77;;;;;;;;;;2057707;28;20607;-56
2022/01/26 00:51:15;;;;;;;51.53;28.40;;;;;;;;;;2057859;28;20174;-54
2022/01/26 00:52:25;;;;;;;53.53;29.00;;;;;;;;;;2058512;28;20174;-57
2022/01/26 00:53:44;;;;;;;57.20;28.70;;;;;;;;;;2057532;28;20224;-56
2022/01/26 00:54:44;;;;;;;51.90;26.23;;;;;;;;;;2057825;28;20169;-56
2022/01/26 00:55:44;;;;;;;54.20;28.07;;;;;;;;;;2058284;28;20529;-58
2022/01/26 00:56:45;;;;;;;55.77;30.10;;;;;;;;;;2058469;28;20155;-57
2022/01/26 00:57:45;;;;;;;57.67;29.70;;;;;;;;;;2073205;23;20311;-58
2022/01/26 00:58:46;;;;;;;50.43;27.30;;;;;;;;;;2072875;28;20169;-59
2022/01/26 00:59:46;;;;;;;53.70;28.47;;;;;;;;;;2065533;28;20182;-60
2022/01/26 01:00:47;;;;;;;53.40;27.37;;;;;;;;;;2067450;28;20158;-59
2022/01/26 01:01:47;;;;;;;53.67;28.37;;;;;;;;;;2070353;28;20739;-60
2022/01/26 01:02:48;;;;;;;55.17;29.37;;;;;;;;;;2065887;28;20191;-59
2022/01/26 01:03:49;;;;;;;51.90;27.03;;;;;;;;;;2066062;28;20176;-60
2022/01/26 01:04:49;;;;;;;51.83;26.50;;;;;;;;;;2073979;28;20196;-59
2022/01/26 01:05:57;;;;;;;50.60;26.50;;;;;;;;;;2064230;28;20591;-57
2022/01/26 01:07:01;;;;;;;48.33;26.77;;;;;;;;;;2065495;28;20173;-61
2022/01/26 01:08:07;;;;;;;50.07;26.67;;;;;;;;;;2065162;28;20357;-60
2022/01/26 01:09:08;;;;;;;51.57;26.57;;;;;;;;;;2064982;28;20150;-61
2022/01/26 01:10:08;;;;;;;55.17;26.67;;;;;;;;;;2065705;28;20258;-60
2022/01/26 01:11:09;;;;;;;52.03;26.93;;;;;;;;;;2065728;28;20185;-60
2022/01/26 01:12:10;;;;;;;50.93;27.17;;;;;;;;;;2066347;28;20180;-59
2022/01/26 01:13:15;;;;;;;52.27;26.87;;;;;;;;;;2065335;28;20177;-60
2022/01/26 01:14:15;;;;;;;50.77;28.70;;;;;;;;;;2065513;28;20634;-61
2022/01/26 01:15:16;;;;;;;55.00;28.20;;;;;;;;;;2065757;28;20173;-60
2022/01/26 01:16:19;;;;;;;51.57;28.63;;;;;;;;;;2065684;28;20185;-58
2022/01/26 01:17:24;;;;;;;52.50;27.30;;;;;;;;;;2065652;28;20617;-60
2022/01/26 01:18:35;;;;;;;56.70;28.83;;;;;;;;;;2065468;28;20656;-59
2022/01/26 01:19:41;;;;;;;53.70;27.17;;;;;;;;;;2065892;28;20430;-59
2022/01/26 01:22:36;;;;;;;55.63;27.57;;;;;;;;;;2066234;28;20236;-58
2022/01/26 01:26:56;;;;;;;53.30;27.43;;;;;;;;;;2066581;28;20220;-60
2022/01/26 01:28:23;;;;;;;57.03;27.77;;;;;;;;;;2060863;28;20257;-60
2022/01/26 01:29:24;;;;;;;52.83;27.03;;;;;;;;;;2065313;28;20165;-62
2022/01/26 01:30:30;;;;;;;60.87;28.33;;;;;;;;;;2066897;28;20221;-60
2022/01/26 01:31:53;;;;;;;59.10;27.97;;;;;;;;;;2067451;28;20189;-59
2022/01/26 01:33:02;;;;;;;53.77;28.17;;;;;;;;;;2066837;28;20189;-60
2022/01/26 01:34:03;;;;;;;55.43;27.23;;;;;;;;;;2074179;28;20175;-60
2022/01/26 01:35:07;;;;;;;53.73;27.63;;;;;;;;;;2074075;28;20161;-59
2022/01/26 01:36:10;;;;;;;51.10;26.50;;;;;;;;;;2066560;28;20194;-60
2022/01/26 01:37:14;;;;;;;52.83;27.03;;;;;;;;;;2066602;28;20265;-59
2022/01/26 01:38:20;;;;;;;54.37;27.10;;;;;;;;;;2066504;28;20188;-59
2022/01/26 01:39:21;;;;;;;52.60;26.37;;;;;;;;;;2066001;28;20192;-61
2022/01/26 01:40:21;;;;;;;48.00;25.00;;;;;;;;;;2066905;28;20177;-60
2022/01/26 01:41:22;;;;;;;54.20;26.43;;;;;;;;;;2066734;28;20215;-58
2022/01/26 01:42:22;;;;;;;50.43;25.63;;;;;;;;;;2066294;28;20170;-59
2022/01/26 01:43:23;;;;;;;48.57;25.53;;;;;;;;;;2074459;28;20656;-60
2022/01/26 01:44:23;;;;;;;52.00;25.27;;;;;;;;;;2073434;28;20161;-60
2022/01/26 01:45:37;;;;;;;50.23;26.27;;;;;;;;;;2066376;28;20165;-59
2022/01/26 01:46:38;;;;;;;50.23;26.17;;;;;;;;;;2066657;28;20169;-59
2022/01/26 01:47:38;;;;;;;61.03;28.90;;;;;;;;;;2057741;28;20194;-60
2022/01/26 01:48:39;;;;;;;52.00;26.03;;;;;;;;;;2066153;28;20194;-59
2022/01/26 01:49:39;;;;;;;51.20;26.83;;;;;;;;;;2058146;28;20178;-61
2022/01/26 01:50:41;;;;;;;55.37;26.83;;;;;;;;;;2050016;28;20179;-62
2022/01/26 01:51:48;;;;;;;49.23;27.30;;;;;;;;;;2057130;28;20174;-60
2022/01/26 01:52:49;;;;;;;51.23;27.07;;;;;;;;;;2053383;28;20185;-60
2022/01/26 01:53:49;;;;;;;53.13;27.73;;;;;;;;;;2058140;28;20261;-59
2022/01/26 01:54:53;;;;;;;52.53;27.37;;;;;;;;;;2063775;28;20174;-59
2022/01/26 01:55:53;;;;;;;50.30;27.87;;;;;;;;;;2065288;28;20192;-60
2022/01/26 01:56:57;;;;;;;54.90;28.07;;;;;;;;;;2065327;28;20216;-60
2022/01/26 01:57:57;;;;;;;54.77;27.93;;;;;;;;;;2065199;28;20765;-60
2022/01/26 01:58:58;;;;;;;54.20;25.07;;;;;;;;;;2065551;28;20169;-59
2022/01/26 01:59:59;;;;;;;55.17;26.47;;;;;;;;;;2073501;28;20522;-59
2022/01/26 02:00:59;;;;;;;55.97;27.27;;;;;;;;;;2064878;28;20190;-60
2022/01/26 02:02:00;;;;;;;53.60;25.77;;;;;;;;;;2065411;28;20514;-59
2022/01/26 02:03:00;;;;;;;55.77;27.50;;;;;;;;;;2065601;28;20609;-60
2022/01/26 02:04:00;;;;;;;53.33;26.30;;;;;;;;;;2065698;28;20173;-59
2022/01/26 02:05:02;;;;;;;54.73;27.60;;;;;;;;;;2066515;28;20531;-61
2022/01/26 02:06:02;;;;;;;60.40;29.80;;;;;;;;;;2064669;28;20216;-59
2022/01/26 02:07:02;;;;;;;56.87;27.87;;;;;;;;;;2071043;28;20219;-58
2022/01/26 02:08:03;;;;;;;50.20;27.57;;;;;;;;;;2064582;28;20200;-59
2022/01/26 02:09:04;;;;;;;50.90;25.67;;;;;;;;;;2064395;28;20166;-60
2022/01/26 02:10:04;;;;;;;50.60;27.03;;;;;;;;;;2065667;28;21833;-60
2022/01/26 02:11:07;;;;;;;50.43;25.23;;;;;;;;;;2065117;28;20197;-60
2022/01/26 02:12:11;;;;;;;52.13;27.20;;;;;;;;;;2065652;28;20177;-59
2022/01/26 02:13:32;;;;;;;53.63;27.20;;;;;;;;;;2065385;28;20557;-60
2022/01/26 02:14:37;;;;;;;60.30;28.67;;;;;;;;;;2056813;28;20638;-61
2022/01/26 02:16:05;;;;;;;53.43;27.23;;;;;;;;;;2057483;28;20209;-59
2022/01/26 02:17:19;;;;;;;50.20;26.50;;;;;;;;;;2064073;28;20235;-60
2022/01/26 02:18:56;;;;;;;53.80;27.60;;;;;;;;;;2059203;28;20603;-60
2022/01/26 02:22:02;;;;;;;58.43;28.53;;;;;;;;;;2062305;28;20204;-60
2022/01/26 02:51:09;;;;;;;54.73;25.53;;;;;;;;;;2065314;28;20172;-60
2022/01/26 02:55:39;;;;;;;50.40;26.40;;;;;;;;;;2065045;28;20759;-61
2022/01/26 03:02:35;;;;;;;57.50;29.07;;;;;;;;;;2065676;28;20169;-58
2022/01/26 03:03:48;;;;;;;56.60;28.40;;;;;;;;;;2065667;28;20166;-59
2022/01/26 03:04:52;;;;;;;54.53;26.60;;;;;;;;;;2065857;28;20907;-61
2022/01/26 03:05:58;;;;;;;61.67;28.37;;;;;;;;;;2066143;28;20174;-60
2022/01/26 03:07:12;;;;;;;57.00;29.10;;;;;;;;;;2063988;28;20300;-58
2022/01/26 03:08:13;;;;;;;54.07;26.53;;;;;;;;;;2073592;28;20468;-60
2022/01/26 03:09:17;;;;;;;58.47;30.47;;;;;;;;;;2073461;28;20434;-59
2022/01/26 03:10:23;;;;;;;64.40;30.17;;;;;;;;;;2063114;28;20176;-60
2022/01/26 03:11:27;;;;;;;51.67;26.80;;;;;;;;;;2065990;28;20651;-60
2022/01/26 03:12:37;;;;;;;58.77;28.63;;;;;;;;;;2064703;28;20252;-59
2022/01/26 03:13:43;;;;;;;55.50;25.07;;;;;;;;;;2066471;28;20668;-60
2022/01/26 03:14:51;;;;;;;55.63;27.33;;;;;;;;;;2066014;28;20223;-59
2022/01/26 03:15:57;;;;;;;58.17;26.70;;;;;;;;;;2059180;28;20166;-60
2022/01/26 03:17:38;;;;;;;57.80;28.60;;;;;;;;;;2066446;28;20214;-63
2022/01/26 03:19:59;;;;;;;64.07;29.50;;;;;;;;;;2065412;28;20181;-61
2022/01/26 03:21:02;;;;;;;66.83;29.50;;;;;;;;;;2065127;28;20204;-59
2022/01/26 03:28:25;;;;;;;64.13;29.30;;;;;;;;;;2065346;28;20689;-59
2022/01/26 03:29:43;;;;;;;58.77;27.67;;;;;;;;;;2065652;28;20251;-59
2022/01/26 03:32:25;;;;;;;59.50;28.07;;;;;;;;;;2064566;28;20170;-59
2022/01/26 03:34:16;;;;;;;64.47;30.57;;;;;;;;;;2064726;28;20188;-60
2022/01/26 03:35:26;;;;;;;59.97;27.73;;;;;;;;;;2066170;28;20173;-59
2022/01/26 03:36:31;;;;;;;56.27;28.33;;;;;;;;;;2064627;28;20176;-59
2022/01/26 03:37:38;;;;;;;62.93;27.17;;;;;;;;;;2064983;28;20173;-60
2022/01/26 03:38:48;;;;;;;57.43;28.90;;;;;;;;;;2064935;28;20161;-61
2022/01/26 03:39:50;;;;;;;57.53;28.63;;;;;;;;;;2057244;28;20869;-60
2022/01/26 03:41:07;;;;;;;60.27;30.20;;;;;;;;;;2064540;28;20580;-59
2022/01/26 03:42:13;;;;;;;61.13;30.77;;;;;;;;;;2068271;28;20633;-58
2022/01/26 03:43:13;;;;;;;63.90;30.47;;;;;;;;;;2065220;28;20177;-60
2022/01/26 03:44:14;;;;;;;77.87;32.80;;;;;;;;;;2065124;28;20174;-59
2022/01/26 03:45:15;;;;;;;74.77;35.03;;;;;;;;;;2064192;28;20243;-60
2022/01/26 03:46:15;;;;;;;73.30;35.57;;;;;;;;;;2064400;28;20185;-58
2022/01/26 03:47:15;;;;;;;66.23;34.30;;;;;;;;;;2064729;28;20181;-59
2022/01/26 03:48:16;;;;;;;71.27;32.60;;;;;;;;;;2072188;28;20185;-60
2022/01/26 03:49:16;;;;;;;71.30;32.47;;;;;;;;;;2072602;28;20192;-60
2022/01/26 03:50:16;;;;;;;67.00;31.87;;;;;;;;;;2065345;28;20248;-59
2022/01/26 03:51:17;;;;;;;68.20;32.37;;;;;;;;;;2062585;28;20508;-59
2022/01/26 03:52:17;;;;;;;65.03;30.90;;;;;;;;;;2064150;28;20219;-59
2022/01/26 03:53:17;;;;;;;67.93;33.67;;;;;;;;;;2065097;28;20178;-61
2022/01/26 03:54:19;;;;;;;69.83;31.00;;;;;;;;;;2064444;28;20161;-60
2022/01/26 03:55:19;;;;;;;62.27;31.30;;;;;;;;;;2072217;28;20703;-58
2022/01/26 03:56:20;;;;;;;69.77;32.63;;;;;;;;;;2063149;28;20311;-60
2022/01/26 03:57:20;;;;;;;66.47;32.23;;;;;;;;;;2063808;28;20438;-59
2022/01/26 03:58:20;;;;;;;76.30;32.83;;;;;;;;;;2063768;28;20267;-59
2022/01/26 03:59:21;;;;;;;77.60;33.20;;;;;;;;;;2064135;28;20184;-58
2022/01/26 04:00:21;;;;;;;75.83;35.83;;;;;;;;;;2063796;28;20181;-57
2022/01/26 04:01:22;;;;;;;73.40;32.50;;;;;;;;;;2063354;28;20240;-60
2022/01/26 04:02:22;;;;;;;72.00;35.23;;;;;;;;;;2064666;28;20184;-59
2022/01/26 04:03:22;;;;;;;77.80;35.57;;;;;;;;;;2063771;28;20169;-60
2022/01/26 04:04:23;;;;;;;76.47;38.27;;;;;;;;;;2064727;28;20176;-60
2022/01/26 04:05:23;;;;;;;73.17;34.33;;;;;;;;;;2063371;28;20305;-59
2022/01/26 04:06:24;;;;;;;80.87;36.50;;;;;;;;;;2064199;28;20276;-59
2022/01/26 04:07:25;;;;;;;84.03;35.57;;;;;;;;;;2071090;28;20176;-56
2022/01/26 04:08:29;;;;;;;74.40;34.60;;;;;;;;;;2072378;28;20175;-59
2022/01/26 04:09:29;;;;;;;73.57;35.67;;;;;;;;;;2063515;28;20173;-55
2022/01/26 04:11:39;;;;;;;78.30;35.80;;;;;;;;;;2064390;28;20244;-61
2022/01/26 04:12:40;;;;;;;77.27;38.67;;;;;;;;;;2064760;28;20525;-60
2022/01/26 04:13:40;;;;;;;75.93;34.43;;;;;;;;;;2065305;28;20501;-59
2022/01/26 04:14:43;;;;;;;78.00;36.60;;;;;;;;;;2065692;28;20185;-59
2022/01/26 04:15:44;;;;;;;79.33;37.03;;;;;;;;;;2066434;28;20272;-59
2022/01/26 04:16:44;;;;;;;76.70;36.20;;;;;;;;;;2066097;28;20554;-58
2022/01/26 04:17:45;;;;;;;74.20;33.83;;;;;;;;;;2065458;28;20676;-59
2022/01/26 04:18:45;;;;;;;79.77;35.57;;;;;;;;;;2065870;28;20173;-59
2022/01/26 04:19:51;;;;;;;81.70;36.43;;;;;;;;;;2066241;28;20177;-59
2022/01/26 04:20:55;;;;;;;79.60;35.50;;;;;;;;;;2065781;28;20560;-59
2022/01/26 04:23:09;;;;;;;82.43;37.27;;;;;;;;;;2066642;28;20166;-58
2022/01/26 04:25:18;;;;;;;82.40;37.33;;;;;;;;;;2066297;28;20172;-59
2022/01/26 04:26:24;;;;;;;83.53;37.77;;;;;;;;;;2065790;28;20219;-62
2022/01/26 04:27:39;;;;;;;81.67;36.93;;;;;;;;;;2065369;28;20169;-57
2022/01/26 04:28:49;;;;;;;72.67;32.20;;;;;;;;;;2066755;28;20177;-58
2022/01/26 04:29:50;;;;;;;80.87;38.13;;;;;;;;;;2062976;28;20220;-60
2022/01/26 04:30:50;;;;;;;73.87;37.00;;;;;;;;;;2067234;28;20161;-60
2022/01/26 04:31:51;;;;;;;84.13;37.43;;;;;;;;;;2066763;28;20192;-59
2022/01/26 04:32:51;;;;;;;79.93;37.67;;;;;;;;;;2066278;28;20182;-59
2022/01/26 04:33:52;;;;;;;82.40;38.07;;;;;;;;;;2066439;28;20197;-59
2022/01/26 04:34:53;;;;;;;86.07;38.23;;;;;;;;;;2066556;28;20206;-60
2022/01/26 04:35:53;;;;;;;76.53;36.90;;;;;;;;;;2065857;28;20522;-59
2022/01/26 04:37:09;;;;;;;81.63;37.20;;;;;;;;;;2065740;28;20173;-60
2022/01/26 04:39:18;;;;;;;85.17;36.60;;;;;;;;;;2065837;28;20173;-59
2022/01/26 04:40:18;;;;;;;76.57;37.47;;;;;;;;;;2065764;28;20166;-59
2022/01/26 04:41:40;;;;;;;84.23;37.50;;;;;;;;;;2066597;28;20197;-59
2022/01/26 04:42:50;;;;;;;74.93;35.17;;;;;;;;;;2065011;28;20180;-61
2022/01/26 04:43:55;;;;;;;79.73;36.10;;;;;;;;;;2067710;28;20581;-58
2022/01/26 04:45:03;;;;;;;81.90;35.90;;;;;;;;;;2072491;28;20177;-60
2022/01/26 04:46:05;;;;;;;84.63;37.63;;;;;;;;;;2065827;28;20634;-60
2022/01/26 04:47:05;;;;;;;75.33;32.67;;;;;;;;;;2065412;28;20186;-58
2022/01/26 04:48:05;;;;;;;75.37;36.27;;;;;;;;;;2065343;28;20702;-58
2022/01/26 04:49:06;;;;;;;79.67;35.70;;;;;;;;;;2065612;28;20592;-60
2022/01/26 04:50:08;;;;;;;82.30;39.93;;;;;;;;;;2065783;28;20185;-61
2022/01/26 04:51:08;;;;;;;76.07;37.23;;;;;;;;;;2065133;28;20169;-60
2022/01/26 04:52:08;;;;;;;75.67;35.57;;;;;;;;;;2064636;28;20174;-60
2022/01/26 04:53:09;;;;;;;82.93;36.43;;;;;;;;;;2065095;28;20169;-59
2022/01/26 04:54:09;;;;;;;75.53;34.37;;;;;;;;;;2065495;28;20252;-60
2022/01/26 04:55:09;;;;;;;86.57;34.73;;;;;;;;;;2065686;28;20248;-61
2022/01/26 04:56:10;;;;;;;80.53;36.80;;;;;;;;;;2065804;28;20193;-60
2022/01/26 04:57:11;;;;;;;78.57;36.50;;;;;;;;;;2065461;28;20172;-60
2022/01/26 04:58:11;;;;;;;83.70;35.70;;;;;;;;;;2065177;28;20263;-60
2022/01/26 04:59:11;;;;;;;80.13;36.53;;;;;;;;;;2065042;28;20268;-60
2022/01/26 05:00:12;;;;;;;75.23;36.43;;;;;;;;;;2065158;28;20192;-58
2022/01/26 05:01:12;;;;;;;82.83;37.60;;;;;;;;;;2065083;28;20692;-61
2022/01/26 05:02:13;;;;;;;80.23;37.17;;;;;;;;;;2065497;28;20544;-60
2022/01/26 05:03:13;;;;;;;84.73;39.20;;;;;;;;;;2065919;28;20813;-60
2022/01/26 05:04:13;;;;;;;89.73;38.53;;;;;;;;;;2065806;28;20190;-59
2022/01/26 05:05:14;;;;;;;81.50;37.30;;;;;;;;;;2065251;28;20619;-61
2022/01/26 05:06:14;;;;;;;79.90;38.20;;;;;;;;;;2065225;28;20336;-59
2022/01/26 05:07:14;;;;;;;86.80;35.37;;;;;;;;;;2064782;28;20661;-59
2022/01/26 05:08:15;;;;;;;79.13;38.57;;;;;;;;;;2072803;28;20527;-59
2022/01/26 05:09:15;;;;;;;80.87;36.73;;;;;;;;;;2073098;28;20326;-59
2022/01/26 05:10:15;;;;;;;81.03;37.07;;;;;;;;;;2065564;28;20182;-61
2022/01/26 05:11:27;;;;;;;86.40;39.53;;;;;;;;;;2065136;28;20188;-59
2022/01/26 05:12:27;;;;;;;83.20;36.60;;;;;;;;;;2064914;28;20205;-60
2022/01/26 05:13:27;;;;;;;84.33;33.93;;;;;;;;;;2065293;28;20422;-60
2022/01/26 05:14:28;;;;;;;84.17;38.23;;;;;;;;;;2065728;28;20185;-60
2022/01/26 05:15:28;;;;;;;80.23;35.97;;;;;;;;;;2065558;28;20221;-59
2022/01/26 05:16:29;;;;;;;81.90;37.43;;;;;;;;;;2065563;28;20835;-60
2022/01/26 05:17:29;;;;;;;83.90;35.33;;;;;;;;;;2056262;28;20623;-59
2022/01/26 05:18:30;;;;;;;88.17;38.50;;;;;;;;;;2056949;28;20183;-58
2022/01/26 05:19:31;;;;;;;83.73;38.93;;;;;;;;;;2065296;28;20638;-59
2022/01/26 05:20:33;;;;;;;85.23;38.67;;;;;;;;;;2064475;28;20185;-58
2022/01/26 05:21:33;;;;;;;79.33;37.67;;;;;;;;;;2064553;28;20504;-60
2022/01/26 05:22:34;;;;;;;77.77;36.23;;;;;;;;;;2063964;28;20181;-60
2022/01/26 05:23:34;;;;;;;84.60;40.43;;;;;;;;;;2065662;28;20662;-59
2022/01/26 05:24:34;;;;;;;79.57;39.50;;;;;;;;;;2066268;28;20693;-59
2022/01/26 05:25:35;;;;;;;84.40;38.70;;;;;;;;;;2064516;28;20184;-59
2022/01/26 05:26:35;;;;;;;83.00;38.63;;;;;;;;;;2064247;28;20265;-59
2022/01/26 05:27:35;;;;;;;77.07;37.93;;;;;;;;;;2065497;28;20284;-62
2022/01/26 05:28:36;;;;;;;79.77;37.23;;;;;;;;;;2065420;28;20650;-59
2022/01/26 05:29:36;;;;;;;78.20;39.00;;;;;;;;;;2065711;28;20166;-62
2022/01/26 05:30:36;;;;;;;82.80;37.87;;;;;;;;;;2073179;28;20169;-60
2022/01/26 05:31:37;;;;;;;77.13;35.60;;;;;;;;;;2074601;28;20216;-58
2022/01/26 05:32:37;;;;;;;84.27;37.47;;;;;;;;;;2066657;28;20185;-60
2022/01/26 05:33:38;;;;;;;77.10;36.73;;;;;;;;;;2069500;28;20212;-57
2022/01/26 05:34:38;;;;;;;76.53;37.23;;;;;;;;;;2066681;28;20185;-59
2022/01/26 05:35:38;;;;;;;86.60;39.90;;;;;;;;;;2066268;28;20635;-61
2022/01/26 05:36:39;;;;;;;78.23;37.70;;;;;;;;;;2065799;28;20614;-58
2022/01/26 05:37:39;;;;;;;79.07;36.20;;;;;;;;;;2065751;28;20194;-58
2022/01/26 05:38:39;;;;;;;76.90;36.10;;;;;;;;;;2066291;28;20279;-60
2022/01/26 05:39:40;;;;;;;79.03;36.27;;;;;;;;;;2073268;28;20204;-59
2022/01/26 05:40:40;;;;;;;83.47;37.57;;;;;;;;;;2073442;28;20801;-58
2022/01/26 05:41:40;;;;;;;83.57;37.70;;;;;;;;;;2065110;28;20166;-59
2022/01/26 05:42:41;;;;;;;78.33;36.47;;;;;;;;;;2066233;28;20221;-59
2022/01/26 05:43:41;;;;;;;79.13;36.20;;;;;;;;;;2065690;28;20310;-59
2022/01/26 05:44:42;;;;;;;82.03;36.43;;;;;;;;;;2065160;28;20738;-59
2022/01/26 05:45:48;;;;;;;82.80;37.20;;;;;;;;;;2066070;28;20173;-60
2022/01/26 05:46:49;;;;;;;82.30;39.23;;;;;;;;;;2065682;28;20614;-59
2022/01/26 05:47:50;;;;;;;88.87;40.00;;;;;;;;;;2065232;28;20447;-61
2022/01/26 05:48:52;;;;;;;76.63;33.70;;;;;;;;;;2065014;28;20427;-61
2022/01/26 05:49:52;;;;;;;68.60;30.80;;;;;;;;;;2073746;28;20223;-60
2022/01/26 05:50:55;;;;;;;80.80;36.43;;;;;;;;;;2066288;28;20263;-59
2022/01/26 05:51:55;;;;;;;78.13;37.13;;;;;;;;;;2073546;28;20173;-65
2022/01/26 05:52:55;;;;;;;80.33;36.50;;;;;;;;;;2073737;28;20308;-58
2022/01/26 05:53:56;;;;;;;83.07;38.00;;;;;;;;;;2066477;28;20201;-60
2022/01/26 05:54:56;;;;;;;77.73;38.20;;;;;;;;;;2066768;28;20646;-59
2022/01/26 05:55:58;;;;;;;81.43;36.80;;;;;;;;;;2066271;28;20174;-62
2022/01/26 05:56:58;;;;;;;80.80;37.97;;;;;;;;;;2065676;28;20177;-58
2022/01/26 05:57:59;;;;;;;80.27;34.80;;;;;;;;;;2064179;28;20224;-58
2022/01/26 05:58:59;;;;;;;68.87;31.00;;;;;;;;;;2066027;28;20241;-59
2022/01/26 05:59:59;;;;;;;68.27;33.20;;;;;;;;;;2067830;28;20241;-57
2022/01/26 06:01:00;;;;;;;77.47;34.80;;;;;;;;;;2066336;28;20284;-58
2022/01/26 06:02:01;;;;;;;85.70;37.73;;;;;;;;;;2066500;28;20176;-58
2022/01/26 06:03:01;;;;;;;75.27;34.20;;;;;;;;;;2065221;28;20215;-58
2022/01/26 06:04:02;;;;;;;79.80;32.47;;;;;;;;;;2065839;28;20173;-61
2022/01/26 06:05:03;;;;;;;77.40;33.20;;;;;;;;;;2065223;28;20182;-60
2022/01/26 06:06:03;;;;;;;78.63;37.73;;;;;;;;;;2065415;28;20240;-61
2022/01/26 06:07:04;;;;;;;84.77;38.83;;;;;;;;;;2064371;28;20309;-60
2022/01/26 06:08:04;;;;;;;85.30;37.97;;;;;;;;;;2066144;28;20572;-59
2022/01/26 06:09:05;;;;;;;84.83;39.30;;;;;;;;;;2066421;28;20182;-59
2022/01/26 06:10:05;;;;;;;88.00;37.57;;;;;;;;;;2065839;28;20157;-60
2022/01/26 06:11:06;;;;;;;84.73;36.57;;;;;;;;;;2064694;28;20762;-59
2022/01/26 06:12:06;;;;;;;86.43;36.67;;;;;;;;;;2056643;28;20191;-60
2022/01/26 06:13:07;;;;;;;88.43;41.70;;;;;;;;;;2064614;28;20688;-61
2022/01/26 06:14:07;;;;;;;92.43;41.87;;;;;;;;;;2065552;28;20213;-58
2022/01/26 06:15:08;;;;;;;99.50;41.30;;;;;;;;;;2066082;28;20261;-61
2022/01/26 06:16:09;;;;;;;91.37;41.20;;;;;;;;;;2065444;28;20178;-60
2022/01/26 06:17:09;;;;;;;90.10;40.43;;;;;;;;;;2066274;28;20211;-58
2022/01/26 06:18:10;;;;;;;84.80;38.03;;;;;;;;;;2065743;28;20197;-62
2022/01/26 06:19:10;;;;;;;90.10;40.40;;;;;;;;;;2067059;28;20183;-60
2022/01/26 06:20:10;;;;;;;85.83;39.57;;;;;;;;;;2066823;28;20645;-62
2022/01/26 06:21:11;;;;;;;79.03;34.67;;;;;;;;;;2065840;28;20215;-60
2022/01/26 06:22:11;;;;;;;72.73;31.17;;;;;;;;;;2066324;28;20275;-60
2022/01/26 06:23:12;;;;;;;82.63;36.00;;;;;;;;;;2066355;28;20546;-60
2022/01/26 06:24:12;;;;;;;85.37;36.10;;;;;;;;;;2066186;28;20177;-60
2022/01/26 06:25:12;;;;;;;78.93;33.70;;;;;;;;;;2065877;28;20178;-60
2022/01/26 06:26:13;;;;;;;81.67;36.53;;;;;;;;;;2065178;28;20184;-60
2022/01/26 06:27:13;;;;;;;84.13;37.27;;;;;;;;;;2065390;28;20252;-60
2022/01/26 06:28:15;;;;;;;89.30;36.03;;;;;;;;;;2064894;28;20264;-63
2022/01/26 06:29:16;;;;;;;92.97;38.87;;;;;;;;;;2065204;28;20170;-57
2022/01/26 06:30:16;;;;;;;77.00;35.20;;;;;;;;;;2064041;28;20621;-61
2022/01/26 06:31:18;;;;;;;87.13;38.70;;;;;;;;;;2065588;28;20228;-60
2022/01/26 06:32:18;;;;;;;81.43;36.60;;;;;;;;;;2065898;28;20200;-61
2022/01/26 06:33:20;;;;;;;80.00;36.80;;;;;;;;;;2065217;28;20458;-61
2022/01/26 06:34:21;;;;;;;77.53;35.97;;;;;;;;;;2065501;28;20442;-58
2022/01/26 06:35:21;;;;;;;79.43;36.13;;;;;;;;;;2065915;28;20522;-61
2022/01/26 06:36:22;;;;;;;80.83;40.73;;;;;;;;;;2057153;28;20191;-63
2022/01/26 06:37:23;;;;;;;96.87;42.00;;;;;;;;;;2047680;28;20202;-61
2022/01/26 06:38:28;;;;;;;93.10;41.97;;;;;;;;;;2064940;28;20178;-62
2022/01/26 06:39:28;;;;;;;89.60;38.60;;;;;;;;;;2066721;28;20332;-60
2022/01/26 06:40:29;;;;;;;84.03;38.53;;;;;;;;;;2064215;28;20786;-62
2022/01/26 06:41:29;;;;;;;86.83;41.53;;;;;;;;;;2049994;29;20277;-63
2022/01/26 06:42:36;;;;;;;81.93;38.13;;;;;;;;;;2058451;28;20174;-63
2022/01/26 06:43:45;;;;;;;92.40;40.90;;;;;;;;;;2065995;28;20161;-59
2022/01/26 06:46:05;;;;;;;90.00;39.60;;;;;;;;;;2065509;28;20486;-61
2022/01/26 06:50:24;;;;;;;88.13;40.57;;;;;;;;;;2068205;28;20392;-60
2022/01/26 06:51:25;;;;;;;87.03;40.60;;;;;;;;;;2065518;28;20216;-61
2022/01/26 06:52:25;;;;;;;80.00;38.77;;;;;;;;;;2065696;28;20173;-62
2022/01/26 06:53:26;;;;;;;90.73;40.27;;;;;;;;;;2065469;28;20173;-61
2022/01/26 06:54:27;;;;;;;89.17;37.70;;;;;;;;;;2058124;28;20166;-57
2022/01/26 06:55:27;;;;;;;89.53;41.60;;;;;;;;;;2055602;28;20686;-60
2022/01/26 06:56:28;;;;;;;86.63;41.07;;;;;;;;;;2065112;28;20446;-63
2022/01/26 06:57:28;;;;;;;85.17;41.07;;;;;;;;;;2064915;28;20308;-58
2022/01/26 06:58:29;;;;;;;86.70;37.50;;;;;;;;;;2077400;23;20178;-63
2022/01/26 06:59:30;;;;;;;69.20;35.50;;;;;;;;;;2063635;28;20582;-63
2022/01/26 07:00:31;;;;;;;87.63;37.50;;;;;;;;;;2076828;28;20166;-60
2022/01/26 07:01:31;;;;;;;79.90;38.57;;;;;;;;;;2078634;28;20219;-60
2022/01/26 07:02:31;;;;;;;86.13;39.90;;;;;;;;;;2077960;28;20207;-61
2022/01/26 07:03:31;;;;;;;91.03;42.67;;;;;;;;;;2077355;28;20200;-61
2022/01/26 07:04:32;;;;;;;87.70;39.93;;;;;;;;;;2076339;28;20200;-60
2022/01/26 07:05:32;;;;;;;91.43;42.50;;;;;;;;;;2068323;28;20248;-60
2022/01/26 07:06:33;;;;;;;83.17;35.50;;;;;;;;;;2076397;28;20168;-60
2022/01/26 07:07:33;;;;;;;93.70;39.30;;;;;;;;;;2075717;28;20252;-60
2022/01/26 07:08:33;;;;;;;89.47;40.33;;;;;;;;;;2075428;28;20534;-59
2022/01/26 07:09:34;;;;;;;88.20;42.60;;;;;;;;;;2070219;28;20164;-59
2022/01/26 07:10:34;;;;;;;84.43;39.80;;;;;;;;;;2069584;28;20563;-61
2022/01/26 07:11:34;;;;;;;77.33;36.40;;;;;;;;;;2069643;28;20168;-61
2022/01/26 07:12:35;;;;;;;87.70;36.53;;;;;;;;;;2068868;28;20260;-61
2022/01/26 07:13:35;;;;;;;86.30;40.63;;;;;;;;;;2069120;28;20227;-62
2022/01/26 07:20:03;;;;;;;89.87;40.10;;;;;;;;;;2068853;28;20182;-59
2022/01/26 07:22:13;;;;;;;83.93;33.30;;;;;;;;;;2069115;28;20422;-61
2022/01/26 07:23:13;;;;;;;90.53;41.37;;;;;;;;;;2072599;28;20402;-56
2022/01/26 07:24:13;;;;;;;93.33;43.77;;;;;;;;;;2072370;28;20264;-54
2022/01/26 07:25:14;;;;;;;85.53;36.67;;;;;;;;;;2072327;28;20165;-59
2022/01/26 07:26:14;;;;;;;72.20;32.47;;;;;;;;;;2072563;28;20215;-58
2022/01/26 07:27:15;;;;;;;85.53;39.17;;;;;;;;;;2071999;28;20188;-58
2022/01/26 07:28:16;;;;;;;87.50;40.50;;;;;;;;;;2072182;28;20219;-58
2022/01/26 07:29:21;;;;;;;92.87;42.10;;;;;;;;;;2068112;28;20220;-59
2022/01/26 07:30:22;;;;;;;82.43;31.97;;;;;;;;;;2070948;28;20462;-59
2022/01/26 07:31:22;;;;;;;88.97;41.20;;;;;;;;;;2069324;28;20656;-60
2022/01/26 07:32:24;;;;;;;97.20;43.23;;;;;;;;;;2071121;28;20181;-60
2022/01/26 07:33:24;;;;;;;80.47;34.87;;;;;;;;;;2069675;28;20180;-62
2022/01/26 07:34:25;;;;;;;93.30;44.07;;;;;;;;;;2072691;28;20264;-60